Cap Portland — A8MQ9 — position and weather

sailwx.info

Track history (hours):
 
Tides and Currents Weather Stations Pressure Air Temp Water Temp Dewpoint Dewpoint Depression Visibility Wind Speed Wind Dir Waves Ship Positions

Cap Portland

Last reported at 2017-Nov-11 22:56 UTC. Time now 2017-Nov-18 14:32 UTC.
Position N 10°19' W 075°48'.

Length 186 m; beam 30 m; draft 11.3 m.

Type: Ship (hazmat cat A). MMSI: 636016646.

Date/timePositionNaut miles runAvg speedWind from/ knotsBaromVisibWave heightAir tempDewpointWater temp
2017-Nov-11 22:56N 10°19' W 075°48'715.1
2017-Nov-11 22:30N 10°19' W 075°41'713.4
2017-Nov-11 22:00N 10°19' W 075°35'510.2
2017-Nov-11 21:30N 10°23' W 075°31'0 0.6
2017-Nov-11 20:54N 10°22' W 075°31'0 0.0
2017-Nov-11 20:24N 10°22' W 075°31'0 0.0
2017-Nov-11 20:00N 10°22' W 075°31'0 0.0
2017-Nov-11 19:30N 10°22' W 075°31'0 0.0
2017-Nov-11 19:00N 10°22' W 075°31'0 0.0
2017-Nov-11 18:30N 10°22' W 075°31'0 0.0
2017-Nov-11 18:00N 10°22' W 075°31'0 0.0
2017-Nov-11 17:30N 10°22' W 075°31'0 0.0
2017-Nov-11 17:00N 10°22' W 075°31'0 0.0
2017-Nov-11 16:24N 10°23' W 075°31'0 0.0
2017-Nov-11 16:00N 10°22' W 075°31'0 0.0
2017-Nov-11 15:30N 10°22' W 075°31'0 0.0
2017-Nov-11 15:00N 10°22' W 075°31'0 0.0
2017-Nov-11 14:30N 10°22' W 075°31'0 0.0
2017-Nov-11 14:00N 10°23' W 075°31'0 0.0
2017-Nov-11 13:27N 10°23' W 075°31'0 0.0
2017-Nov-11 13:00N 10°22' W 075°31'0 0.0
2017-Nov-11 12:30N 10°22' W 075°31'0 0.0
2017-Nov-11 12:00N 10°22' W 075°31'0 0.0
2017-Nov-11 11:30N 10°22' W 075°31'0 0.0
2017-Nov-11 11:00N 10°22' W 075°31'0 0.0
2017-Nov-11 10:30N 10°22' W 075°31'0 0.0
2017-Nov-11 10:00N 10°22' W 075°31'0 0.0
2017-Nov-11 09:30N 10°22' W 075°31'0 0.0
2017-Nov-11 08:06N 10°22' W 075°31'0 0.0
2017-Nov-11 08:00N 10°22' W 075°31'0 0.0
2017-Nov-11 07:30N 10°22' W 075°31'0 0.0
2017-Nov-11 07:00N 10°22' W 075°31'2 3.5
2017-Nov-11 06:30N 10°21' W 075°32'510.2
2017-Nov-11 06:00N 10°19' W 075°36'4 8.7
2017-Nov-11 05:30N 10°18' W 075°41'  
2017-Nov-08 20:38N 11°07' W 074°60'213.3
2017-Nov-08 20:28N 11°08' W 074°58'613.2
2017-Nov-08 19:59N 11°11' W 074°52'913.3
2017-Nov-08 19:18N 11°13' W 074°43'15 0.8
2017-Nov-08 00:33N 10°58' W 074°45'0 1.4
2017-Nov-08 00:29N 10°58' W 074°45'0 0.0
2017-Nov-07 19:39N 10°58' W 074°46'0 0.0
2017-Nov-07 19:27N 10°58' W 074°46'0 0.0
2017-Nov-07 14:27N 10°58' W 074°46'0 0.0
2017-Nov-07 14:00N 10°58' W 074°46'0 0.0
2017-Nov-07 13:30N 10°58' W 074°46'0 0.0
2017-Nov-07 13:00N 10°58' W 074°46'0 0.0
2017-Nov-07 12:30N 10°58' W 074°46'0 0.0
2017-Nov-07 12:00N 10°58' W 074°46'0 0.0
2017-Nov-07 11:24N 10°58' W 074°46'0 0.0
2017-Nov-07 11:00N 10°58' W 074°46'0 0.0
2017-Nov-07 10:30N 10°58' W 074°46'0 0.0
2017-Nov-07 10:00N 10°58' W 074°46'0 0.0
2017-Nov-07 09:30N 10°58' W 074°46'0 0.0
2017-Nov-07 08:06N 10°58' W 074°46'0 0.1
2017-Nov-07 08:00N 10°58' W 074°46'0 0.0
2017-Nov-07 07:27N 10°58' W 074°46'0 0.0
2017-Nov-07 07:00N 10°58' W 074°46'0 0.0
2017-Nov-07 06:30N 10°58' W 074°46'0 0.0
2017-Nov-07 06:00N 10°58' W 074°46'0 0.0
2017-Nov-07 05:30N 10°58' W 074°46'0 0.0
2017-Nov-07 05:00N 10°58' W 074°46'0 0.0
2017-Nov-07 04:27N 10°58' W 074°46'0 0.0
2017-Nov-07 04:00N 10°58' W 074°46'0 0.0
2017-Nov-07 03:30N 10°58' W 074°46'0 0.0
2017-Nov-07 03:00N 10°58' W 074°46'0 0.0
2017-Nov-07 02:30N 10°58' W 074°46'0 0.0
2017-Nov-07 02:00N 10°58' W 074°46'0 0.0
2017-Nov-07 01:30N 10°58' W 074°46'0 0.0
2017-Nov-07 01:00N 10°58' W 074°46'0 0.0
2017-Nov-07 00:30N 10°58' W 074°46'0 0.0
2017-Nov-06 23:57N 10°58' W 074°46'0 0.0
2017-Nov-06 23:30N 10°58' W 074°46'2 3.8
2017-Nov-06 23:00N 10°60' W 074°46'5 9.3
2017-Nov-06 22:31N 11°03' W 074°50'4 8.5
2017-Nov-06 22:00N 11°07' W 074°51'611.8
2017-Nov-06 21:30N 11°07' W 074°57'4 9.3
2017-Nov-06 21:00N 11°08' W 075°02'0 0.2
2017-Nov-06 20:21N 11°08' W 075°02'53 3.0
2017-Nov-06 02:29N 10°23' W 075°31'0 0.0
2017-Nov-06 01:59N 10°23' W 075°31'0 0.0
2017-Nov-06 01:29N 10°23' W 075°31'0 0.0
2017-Nov-06 00:59N 10°23' W 075°31'0 0.0
2017-Nov-06 00:29N 10°23' W 075°31'0 0.0
2017-Nov-05 23:59N 10°23' W 075°31'0 0.3
2017-Nov-05 23:30N 10°23' W 075°31'3 6.7
2017-Nov-05 23:00N 10°20' W 075°33'510.1
2017-Nov-05 22:30N 10°19' W 075°38'612.8
2017-Nov-05 22:00N 10°23' W 075°43'5 9.9
2017-Nov-05 21:30N 10°28' W 075°42'1 1.8
2017-Nov-05 21:00N 10°27' W 075°43'1 1.8
2017-Nov-05 20:30N 10°27' W 075°43'1 1.8
2017-Nov-05 20:00N 10°26' W 075°44'1 1.7
2017-Nov-05 19:30N 10°26' W 075°45'1 1.7
2017-Nov-05 19:00N 10°25' W 075°45'1 1.8
2017-Nov-05 18:30N 10°24' W 075°46'1 1.8
2017-Nov-05 17:59N 10°24' W 075°47'1 1.5
2017-Nov-05 17:30N 10°23' W 075°47'4 8.4
2017-Nov-05 17:00N 10°27' W 075°45'5 9.6
2017-Nov-05 16:30N 10°31' W 075°42'5 9.8
2017-Nov-05 16:00N 10°35' W 075°40'7411.1
2017-Nov-05 09:20N 11°35' W 074°56'  
Track history (hours):
 
Tides and Currents Weather Stations Pressure Air Temp Water Temp Dewpoint Dewpoint Depression Visibility Wind Speed Wind Dir Waves Ship Positions

Cap Portland

Last reported at 2017-Nov-11 22:56 UTC. Time now 2017-Nov-18 14:32 UTC.
Position N 10°19' W 075°48'.

Length 186 m; beam 30 m; draft 11.3 m.

Type: Ship (hazmat cat A). MMSI: 636016646.

Date/timePositionNaut miles runAvg speedWind from/ knotsBaromVisibWave heightAir tempDewpointWater temp
2017-Nov-11 22:56N 10°19' W 075°48'715.1
2017-Nov-11 22:30N 10°19' W 075°41'713.4
2017-Nov-11 22:00N 10°19' W 075°35'510.2
2017-Nov-11 21:30N 10°23' W 075°31'0 0.6
2017-Nov-11 20:54N 10°22' W 075°31'0 0.0
2017-Nov-11 20:24N 10°22' W 075°31'0 0.0
2017-Nov-11 20:00N 10°22' W 075°31'0 0.0
2017-Nov-11 19:30N 10°22' W 075°31'0 0.0
2017-Nov-11 19:00N 10°22' W 075°31'0 0.0
2017-Nov-11 18:30N 10°22' W 075°31'0 0.0
2017-Nov-11 18:00N 10°22' W 075°31'0 0.0
2017-Nov-11 17:30N 10°22' W 075°31'0 0.0
2017-Nov-11 17:00N 10°22' W 075°31'0 0.0
2017-Nov-11 16:24N 10°23' W 075°31'0 0.0
2017-Nov-11 16:00N 10°22' W 075°31'0 0.0
2017-Nov-11 15:30N 10°22' W 075°31'0 0.0
2017-Nov-11 15:00N 10°22' W 075°31'0 0.0
2017-Nov-11 14:30N 10°22' W 075°31'0 0.0
2017-Nov-11 14:00N 10°23' W 075°31'0 0.0
2017-Nov-11 13:27N 10°23' W 075°31'0 0.0
2017-Nov-11 13:00N 10°22' W 075°31'0 0.0
2017-Nov-11 12:30N 10°22' W 075°31'0 0.0
2017-Nov-11 12:00N 10°22' W 075°31'0 0.0
2017-Nov-11 11:30N 10°22' W 075°31'0 0.0
2017-Nov-11 11:00N 10°22' W 075°31'0 0.0
2017-Nov-11 10:30N 10°22' W 075°31'0 0.0
2017-Nov-11 10:00N 10°22' W 075°31'0 0.0
2017-Nov-11 09:30N 10°22' W 075°31'0 0.0
2017-Nov-11 08:06N 10°22' W 075°31'0 0.0
2017-Nov-11 08:00N 10°22' W 075°31'0 0.0
2017-Nov-11 07:30N 10°22' W 075°31'0 0.0
2017-Nov-11 07:00N 10°22' W 075°31'2 3.5
2017-Nov-11 06:30N 10°21' W 075°32'510.2
2017-Nov-11 06:00N 10°19' W 075°36'4 8.7
2017-Nov-11 05:30N 10°18' W 075°41'  
2017-Nov-08 20:38N 11°07' W 074°60'213.3
2017-Nov-08 20:28N 11°08' W 074°58'613.2
2017-Nov-08 19:59N 11°11' W 074°52'913.3
2017-Nov-08 19:18N 11°13' W 074°43'15 0.8
2017-Nov-08 00:33N 10°58' W 074°45'0 1.4
2017-Nov-08 00:29N 10°58' W 074°45'0 0.0
2017-Nov-07 19:39N 10°58' W 074°46'0 0.0
2017-Nov-07 19:27N 10°58' W 074°46'0 0.0
2017-Nov-07 14:27N 10°58' W 074°46'0 0.0
2017-Nov-07 14:00N 10°58' W 074°46'0 0.0
2017-Nov-07 13:30N 10°58' W 074°46'0 0.0
2017-Nov-07 13:00N 10°58' W 074°46'0 0.0
2017-Nov-07 12:30N 10°58' W 074°46'0 0.0
2017-Nov-07 12:00N 10°58' W 074°46'0 0.0
2017-Nov-07 11:24N 10°58' W 074°46'0 0.0
2017-Nov-07 11:00N 10°58' W 074°46'0 0.0
2017-Nov-07 10:30N 10°58' W 074°46'0 0.0
2017-Nov-07 10:00N 10°58' W 074°46'0 0.0
2017-Nov-07 09:30N 10°58' W 074°46'0 0.0
2017-Nov-07 08:06N 10°58' W 074°46'0 0.1
2017-Nov-07 08:00N 10°58' W 074°46'0 0.0
2017-Nov-07 07:27N 10°58' W 074°46'0 0.0
2017-Nov-07 07:00N 10°58' W 074°46'0 0.0
2017-Nov-07 06:30N 10°58' W 074°46'0 0.0
2017-Nov-07 06:00N 10°58' W 074°46'0 0.0
2017-Nov-07 05:30N 10°58' W 074°46'0 0.0
2017-Nov-07 05:00N 10°58' W 074°46'0 0.0
2017-Nov-07 04:27N 10°58' W 074°46'0 0.0
2017-Nov-07 04:00N 10°58' W 074°46'0 0.0
2017-Nov-07 03:30N 10°58' W 074°46'0 0.0
2017-Nov-07 03:00N 10°58' W 074°46'0 0.0
2017-Nov-07 02:30N 10°58' W 074°46'0 0.0
2017-Nov-07 02:00N 10°58' W 074°46'0 0.0
2017-Nov-07 01:30N 10°58' W 074°46'0 0.0
2017-Nov-07 01:00N 10°58' W 074°46'0 0.0
2017-Nov-07 00:30N 10°58' W 074°46'0 0.0
2017-Nov-06 23:57N 10°58' W 074°46'0 0.0
2017-Nov-06 23:30N 10°58' W 074°46'2 3.8
2017-Nov-06 23:00N 10°60' W 074°46'5 9.3
2017-Nov-06 22:31N 11°03' W 074°50'4 8.5
2017-Nov-06 22:00N 11°07' W 074°51'611.8
2017-Nov-06 21:30N 11°07' W 074°57'4 9.3
2017-Nov-06 21:00N 11°08' W 075°02'0 0.2
2017-Nov-06 20:21N 11°08' W 075°02'53 3.0
2017-Nov-06 02:29N 10°23' W 075°31'0 0.0
2017-Nov-06 01:59N 10°23' W 075°31'0 0.0
2017-Nov-06 01:29N 10°23' W 075°31'0 0.0
2017-Nov-06 00:59N 10°23' W 075°31'0 0.0
2017-Nov-06 00:29N 10°23' W 075°31'0 0.0
2017-Nov-05 23:59N 10°23' W 075°31'0 0.3
2017-Nov-05 23:30N 10°23' W 075°31'3 6.7
2017-Nov-05 23:00N 10°20' W 075°33'510.1
2017-Nov-05 22:30N 10°19' W 075°38'612.8
2017-Nov-05 22:00N 10°23' W 075°43'5 9.9
2017-Nov-05 21:30N 10°28' W 075°42'1 1.8
2017-Nov-05 21:00N 10°27' W 075°43'1 1.8
2017-Nov-05 20:30N 10°27' W 075°43'1 1.8
2017-Nov-05 20:00N 10°26' W 075°44'1 1.7
2017-Nov-05 19:30N 10°26' W 075°45'1 1.7
2017-Nov-05 19:00N 10°25' W 075°45'1 1.8
2017-Nov-05 18:30N 10°24' W 075°46'1 1.8
2017-Nov-05 17:59N 10°24' W 075°47'1 1.5
2017-Nov-05 17:30N 10°23' W 075°47'4 8.4
2017-Nov-05 17:00N 10°27' W 075°45'5 9.6
2017-Nov-05 16:30N 10°31' W 075°42'5 9.8
2017-Nov-05 16:00N 10°35' W 075°40'7411.1
2017-Nov-05 09:20N 11°35' W 074°56'  

Dump ship's entire track history